Time;durP1;ratioP1;P1;durP2;ratioP2;P2;SDS_P1;SDS_P2;PMS_P1;PMS_P2;Temp;Humidity;BMP_temperature;BMP_pressure;BME280_temperature;BME280_humidity;BME280_pressure;Samples;Min_cycle;Max_cycle;Signal;HPM_P1;HPM_P2
2022/08/14 00:01:16;;;;;;;8.52;5.18;;;22.40;71.80;;;;;;5071756;28;20036;-79
2022/08/14 00:03:41;;;;;;;6.22;5.00;;;22.30;72.10;;;;;;5069700;28;20495;-78
2022/08/14 00:06:07;;;;;;;8.23;5.10;;;22.30;72.30;;;;;;5065749;28;20030;-78
2022/08/14 00:08:33;;;;;;;7.78;5.00;;;22.30;72.50;;;;;;5072118;28;20161;-79
2022/08/14 00:10:59;;;;;;;6.70;4.90;;;22.20;72.80;;;;;;5065295;28;20488;-79
2022/08/14 00:13:29;;;;;;;6.82;4.75;;;22.20;73.20;;;;;;5066815;28;20020;-80
2022/08/14 00:15:58;;;;;;;8.55;4.90;;;22.20;73.20;;;;;;5065948;28;20082;-81
2022/08/14 00:18:26;;;;;;;8.75;5.13;;;22.30;73.60;;;;;;5071678;28;20082;-79
2022/08/14 00:20:53;;;;;;;6.68;5.60;;;22.20;73.50;;;;;;5071560;28;20031;-79
2022/08/14 00:23:19;;;;;;;7.18;5.10;;;22.20;73.60;;;;;;5060733;28;20042;-79
2022/08/14 00:25:53;;;;;;;7.78;5.45;;;22.20;73.90;;;;;;5071009;28;20031;-79
2022/08/14 00:28:20;;;;;;;8.13;5.20;;;22.20;74.10;;;;;;5072225;28;20492;-79
2022/08/14 00:30:46;;;;;;;7.72;5.65;;;22.20;74.10;;;;;;5069594;28;20178;-79
2022/08/14 00:33:12;;;;;;;9.00;5.22;;;22.20;75.00;;;;;;5070952;28;20096;-79
2022/08/14 00:35:38;;;;;;;9.60;5.63;;;22.20;74.40;;;;;;5069670;28;20021;-79
2022/08/14 00:38:03;;;;;;;7.35;5.50;;;22.20;74.80;;;;;;5070590;28;20170;-79
2022/08/14 00:40:29;;;;;;;8.70;5.28;;;22.20;75.10;;;;;;5070260;28;20024;-79
2022/08/14 00:42:54;;;;;;;6.43;4.82;;;22.10;75.30;;;;;;5071256;28;20025;-79
2022/08/14 00:45:20;;;;;;;6.50;4.90;;;22.10;75.60;;;;;;5053049;28;20024;-79
2022/08/14 00:47:47;;;;;;;5.50;4.82;;;22.10;75.70;;;;;;5071444;28;20047;-78
2022/08/14 00:50:17;;;;;;;4.95;4.50;;;22.00;76.00;;;;;;5070987;28;20029;-79
2022/08/14 00:52:44;;;;;;;5.30;4.80;;;22.00;76.30;;;;;;5068934;28;20477;-79
2022/08/14 00:55:11;;;;;;;5.70;4.72;;;22.00;76.60;;;;;;5071005;28;20387;-79
2022/08/14 00:57:38;;;;;;;6.47;4.60;;;21.90;76.80;;;;;;5071242;28;20055;-79
2022/08/14 01:00:13;;;;;;;7.65;5.50;;;21.90;77.10;;;;;;5068745;28;20085;-79
2022/08/14 01:02:42;;;;;;;7.93;5.83;;;21.90;77.10;;;;;;5067343;28;20373;-79
2022/08/14 01:05:22;;;;;;;10.68;5.47;;;21.90;77.00;;;;;;5064822;28;20737;-79
2022/08/14 01:07:50;;;;;;;7.18;5.20;;;21.90;77.10;;;;;;5059300;28;20030;-79
2022/08/14 01:10:16;;;;;;;7.55;5.35;;;21.90;76.80;;;;;;5068453;28;20427;-79
2022/08/14 01:12:42;;;;;;;7.68;5.43;;;21.90;76.80;;;;;;5052297;28;20032;-79
2022/08/14 01:15:08;;;;;;;11.23;5.72;;;21.90;77.00;;;;;;5069843;28;20091;-79
2022/08/14 01:23:05;;;;;;;;;;;21.90;77.10;;;;;;5071202;28;20070;-79
2022/08/14 01:25:30;;;;;;;7.50;5.60;;;21.80;77.40;;;;;;5070177;28;19908;-80
2022/08/14 01:27:57;;;;;;;8.07;5.82;;;21.80;77.40;;;;;;5070786;28;20526;-79
2022/08/14 01:30:25;;;;;;;10.43;5.90;;;21.80;77.70;;;;;;5070946;28;20107;-79
2022/08/14 01:32:51;;;;;;;8.68;6.20;;;21.80;77.80;;;;;;5069841;28;20179;-79
2022/08/14 01:35:16;;;;;;;8.95;6.20;;;21.70;78.00;;;;;;5065522;28;20716;-79
2022/08/14 01:37:47;;;;;;;7.85;6.93;;;21.70;78.10;;;;;;5068380;28;20404;-80
2022/08/14 01:40:14;;;;;;;8.45;6.65;;;21.70;78.00;;;;;;5066587;28;20036;-79
2022/08/14 01:42:43;;;;;;;7.78;6.28;;;21.70;78.10;;;;;;5056335;28;20013;-79
2022/08/14 01:45:11;;;;;;;9.07;6.22;;;21.70;78.10;;;;;;5060284;28;20016;-79
2022/08/14 01:47:38;;;;;;;8.82;6.82;;;21.70;78.00;;;;;;5067020;28;20560;-79
2022/08/14 01:50:06;;;;;;;9.38;6.90;;;21.70;78.10;;;;;;5070992;28;20028;-79
2022/08/14 01:52:35;;;;;;;11.13;7.30;;;21.70;78.40;;;;;;5070244;28;20058;-79
2022/08/14 01:55:07;;;;;;;9.48;7.10;;;21.60;78.80;;;;;;5070337;28;20033;-79
2022/08/14 01:57:36;;;;;;;9.43;7.45;;;21.60;79.00;;;;;;5070343;28;20025;-79
2022/08/14 02:00:09;;;;;;;8.77;6.50;;;21.60;79.40;;;;;;5063713;28;20044;-80
2022/08/14 02:02:34;;;;;;;11.50;7.28;;;21.50;79.50;;;;;;5061881;28;20021;-78
2022/08/14 02:05:01;;;;;;;11.05;7.15;;;21.50;79.70;;;;;;5069374;28;20040;-78
2022/08/14 02:07:31;;;;;;;9.73;7.88;;;21.50;79.80;;;;;;5070019;28;20017;-79
2022/08/14 02:09:57;;;;;;;10.65;7.75;;;21.50;80.10;;;;;;5069868;28;20021;-79
2022/08/14 02:12:23;;;;;;;11.50;7.65;;;21.40;80.40;;;;;;5061295;28;20040;-78
2022/08/14 02:14:49;;;;;;;8.93;7.78;;;21.40;80.60;;;;;;5064478;28;20052;-79
2022/08/14 02:17:14;;;;;;;9.82;7.60;;;21.40;81.10;;;;;;5070093;28;20117;-79
2022/08/14 02:19:40;;;;;;;11.55;7.38;;;21.30;81.30;;;;;;5070292;28;20094;-79
2022/08/14 02:22:06;;;;;;;13.00;8.05;;;21.30;81.30;;;;;;5070184;28;20464;-79
2022/08/14 02:24:32;;;;;;;12.18;7.82;;;21.30;81.50;;;;;;5069776;28;20086;-79
2022/08/14 02:26:59;;;;;;;10.70;8.27;;;21.30;81.80;;;;;;5070197;28;20089;-79
2022/08/14 02:29:29;;;;;;;10.20;7.60;;;21.30;82.00;;;;;;5069888;28;20029;-80
2022/08/14 02:31:57;;;;;;;10.70;8.55;;;21.30;82.20;;;;;;5069838;28;20036;-79
2022/08/14 02:34:28;;;;;;;11.52;8.27;;;21.20;82.10;;;;;;5069475;28;20035;-78
2022/08/14 02:36:57;;;;;;;11.48;8.48;;;21.20;82.30;;;;;;5069936;28;20073;-79
2022/08/14 02:39:23;;;;;;;12.32;8.27;;;21.20;82.50;;;;;;5044220;28;20068;-79
2022/08/14 02:41:50;;;;;;;14.43;8.50;;;21.20;82.80;;;;;;5062231;28;20116;-79
2022/08/14 02:44:17;;;;;;;10.80;8.73;;;21.20;83.80;;;;;;5068472;28;20545;-79
2022/08/14 02:46:44;;;;;;;10.55;8.55;;;21.20;83.40;;;;;;5062679;28;20036;-79
2022/08/14 02:49:10;;;;;;;10.63;8.68;;;21.10;83.80;;;;;;5070746;28;20104;-79
2022/08/14 02:51:36;;;;;;;11.32;8.68;;;21.10;84.00;;;;;;5063782;28;20031;-79
2022/08/14 02:54:03;;;;;;;10.00;8.63;;;21.10;84.30;;;;;;5069886;28;20024;-79
2022/08/14 02:56:28;;;;;;;10.55;8.73;;;21.00;84.50;;;;;;5073017;28;20527;-76
2022/08/14 02:58:56;;;;;;;12.73;8.57;;;21.00;84.70;;;;;;5066183;28;20109;-79
2022/08/14 03:01:23;;;;;;;13.52;9.52;;;21.00;85.00;;;;;;5073822;28;20027;-79
2022/08/14 03:03:50;;;;;;;11.18;8.70;;;21.00;85.20;;;;;;5073318;28;20036;-79
2022/08/14 03:06:19;;;;;;;16.48;9.38;;;20.90;85.60;;;;;;5072673;28;20025;-79
2022/08/14 03:08:47;;;;;;;13.02;9.02;;;20.90;85.90;;;;;;5072971;28;20024;-80
2022/08/14 03:11:13;;;;;;;10.43;8.90;;;20.90;86.00;;;;;;5072990;28;20083;-79
2022/08/14 03:13:41;;;;;;;14.48;10.10;;;20.90;86.30;;;;;;5073021;28;20104;-79
2022/08/14 03:16:09;;;;;;;12.85;9.40;;;20.90;86.80;;;;;;5073279;28;20044;-79
2022/08/14 03:18:40;;;;;;;11.73;9.45;;;20.80;87.20;;;;;;5072783;28;20469;-79
2022/08/14 03:21:10;;;;;;;13.43;9.43;;;20.80;87.40;;;;;;5061305;28;20024;-79
2022/08/14 03:23:35;;;;;;;13.27;9.88;;;20.80;87.50;;;;;;5070812;28;20017;-79
2022/08/14 03:26:02;;;;;;;11.38;9.73;;;20.70;87.50;;;;;;5073474;28;20123;-79
2022/08/14 03:28:29;;;;;;;10.52;9.43;;;20.70;87.90;;;;;;5065470;28;20016;-78
2022/08/14 03:30:56;;;;;;;13.05;9.35;;;20.70;88.20;;;;;;5073208;28;20032;-80
2022/08/14 03:33:22;;;;;;;13.50;9.50;;;20.70;88.40;;;;;;5071328;28;20033;-79
2022/08/14 03:35:49;;;;;;;13.80;10.52;;;20.60;88.60;;;;;;5073192;28;20060;-78
2022/08/14 03:38:17;;;;;;;11.63;10.40;;;20.60;89.10;;;;;;5072754;28;20052;-80
2022/08/14 03:40:43;;;;;;;11.35;9.45;;;20.60;89.50;;;;;;5072676;28;20103;-79
2022/08/14 03:43:10;;;;;;;13.30;10.30;;;20.50;90.00;;;;;;5062057;28;20025;-78
2022/08/14 03:45:37;;;;;;;12.35;10.40;;;20.50;90.10;;;;;;5069688;28;20120;-79
2022/08/14 03:48:18;;;;;;;13.18;10.18;;;20.50;90.30;;;;;;5070799;28;20031;-79
2022/08/14 03:50:46;;;;;;;11.20;9.93;;;20.40;90.60;;;;;;5072137;28;20445;-78
2022/08/14 03:53:13;;;;;;;11.98;10.32;;;20.40;90.70;;;;;;5072967;28;20067;-80
2022/08/14 03:55:39;;;;;;;15.55;10.73;;;20.30;90.80;;;;;;5068183;28;20021;-79
2022/08/14 03:58:06;;;;;;;13.98;10.50;;;20.30;91.10;;;;;;5072716;28;20020;-79
2022/08/14 04:00:33;;;;;;;14.82;10.77;;;20.30;91.20;;;;;;5070872;28;20361;-79
2022/08/14 04:02:59;;;;;;;15.00;10.88;;;20.20;91.20;;;;;;5060541;28;20020;-79
2022/08/14 04:05:24;;;;;;;12.65;10.77;;;20.20;91.30;;;;;;5053108;28;20090;-79
2022/08/14 04:07:50;;;;;;;13.73;11.13;;;20.20;91.30;;;;;;5071666;28;20017;-80
2022/08/14 04:10:16;;;;;;;13.85;11.20;;;20.20;91.50;;;;;;5071433;28;20052;-79
2022/08/14 04:12:42;;;;;;;15.85;11.10;;;20.20;91.60;;;;;;5071930;28;20033;-78
2022/08/14 04:15:08;;;;;;;15.38;11.05;;;20.20;91.70;;;;;;5071529;28;20032;-79
2022/08/14 04:17:34;;;;;;;13.73;10.98;;;20.20;91.90;;;;;;5071952;28;20020;-78
2022/08/14 04:20:04;;;;;;;16.33;11.07;;;20.20;92.00;;;;;;5071538;28;20089;-79
2022/08/14 04:22:31;;;;;;;16.95;10.73;;;20.10;92.10;;;;;;5071743;28;20028;-78
2022/08/14 04:24:58;;;;;;;13.45;10.93;;;20.10;92.20;;;;;;5070761;28;20369;-78
2022/08/14 04:27:24;;;;;;;15.50;12.10;;;20.10;92.20;;;;;;5066432;28;20012;-79
2022/08/14 04:29:50;;;;;;;16.50;11.82;;;20.00;92.40;;;;;;5071806;28;20027;-79
2022/08/14 04:32:18;;;;;;;13.52;11.23;;;20.00;92.60;;;;;;5073665;28;20021;-78
2022/08/14 04:34:43;;;;;;;13.55;10.88;;;20.00;92.70;;;;;;5074234;28;20016;-78
2022/08/14 04:45:29;;;;;;;13.82;11.05;;;19.90;93.30;;;;;;5072573;28;20039;-78
2022/08/14 04:48:12;;;;;;;15.48;11.20;;;19.90;93.50;;;;;;5057520;28;20438;-79
2022/08/14 04:50:45;;;;;;;15.70;11.55;;;19.80;93.60;;;;;;5074947;28;20029;-79
2022/08/14 04:53:17;;;;;;;16.05;11.75;;;19.80;93.80;;;;;;5079660;28;20016;-78
2022/08/14 04:55:47;;;;;;;16.60;11.48;;;19.80;93.90;;;;;;5072837;28;20056;-79
2022/08/14 04:58:15;;;;;;;14.15;11.70;;;19.80;94.00;;;;;;5070761;28;20074;-79
2022/08/14 05:00:40;;;;;;;14.18;12.13;;;19.80;94.10;;;;;;5060775;28;20044;-78
2022/08/14 05:03:09;;;;;;;14.50;11.57;;;19.80;94.30;;;;;;5072856;28;20028;-79
2022/08/14 05:05:35;;;;;;;14.68;11.50;;;19.80;94.50;;;;;;5073207;28;20025;-79
2022/08/14 05:08:11;;;;;;;15.02;11.88;;;19.80;94.60;;;;;;5068755;28;20017;-79
2022/08/14 05:10:49;;;;;;;15.70;12.00;;;19.80;94.70;;;;;;5072016;28;20035;-80
2022/08/14 05:13:15;;;;;;;17.88;12.93;;;19.80;94.90;;;;;;5071635;28;20036;-79
2022/08/14 05:15:43;;;;;;;16.88;13.73;;;19.80;95.10;;;;;;5064101;28;20016;-79
2022/08/14 05:18:14;;;;;;;15.40;13.00;;;19.80;95.20;;;;;;5070162;28;20016;-79
2022/08/14 05:20:45;;;;;;;15.02;13.13;;;19.90;95.40;;;;;;5069673;28;20040;-79
2022/08/14 05:23:13;;;;;;;18.40;12.23;;;19.90;95.50;;;;;;5070702;28;20017;-79
2022/08/14 05:25:39;;;;;;;18.17;13.98;;;19.90;95.60;;;;;;5063991;28;20051;-79
2022/08/14 05:28:18;;;;;;;17.17;12.77;;;19.90;95.50;;;;;;5063493;28;20020;-79
2022/08/14 05:30:55;;;;;;;19.63;12.70;;;20.00;95.50;;;;;;5063587;28;20403;-79
2022/08/14 05:33:27;;;;;;;15.27;13.10;;;20.00;95.40;;;;;;5065215;28;20035;-78
2022/08/14 05:36:00;;;;;;;27.52;13.20;;;20.00;95.30;;;;;;5040675;28;20033;-79
2022/08/14 05:38:37;;;;;;;18.73;13.60;;;20.10;95.40;;;;;;5064306;28;20048;-79
2022/08/14 05:41:10;;;;;;;16.67;13.63;;;20.10;95.30;;;;;;5071809;28;20057;-79
2022/08/14 05:43:36;;;;;;;21.17;14.25;;;20.20;95.40;;;;;;5063495;28;20024;-79
2022/08/14 05:46:02;;;;;;;18.30;14.95;;;20.20;95.40;;;;;;5065627;28;20055;-80
2022/08/14 05:48:28;;;;;;;18.40;14.60;;;20.20;95.40;;;;;;5071504;28;20099;-79
2022/08/14 05:50:55;;;;;;;19.40;14.70;;;20.30;95.40;;;;;;5072294;28;20285;-77
2022/08/14 05:53:21;;;;;;;17.27;13.82;;;20.30;95.50;;;;;;5070490;28;20020;-76
2022/08/14 05:55:47;;;;;;;15.93;12.25;;;20.40;95.60;;;;;;5062092;28;20036;-77
2022/08/14 05:58:13;;;;;;;17.38;13.10;;;20.40;95.30;;;;;;5064299;28;20523;-77
2022/08/14 06:00:41;;;;;;;17.77;12.73;;;20.40;95.80;;;;;;5067589;28;20060;-77
2022/08/14 06:03:09;;;;;;;17.05;13.52;;;20.40;95.20;;;;;;5064249;28;20047;-77
2022/08/14 06:05:36;;;;;;;17.23;13.52;;;20.50;95.10;;;;;;5068241;28;20576;-77
2022/08/14 06:08:02;;;;;;;16.20;13.35;;;20.50;95.10;;;;;;5062471;28;20063;-77
2022/08/14 06:10:30;;;;;;;18.80;14.05;;;20.50;94.90;;;;;;5063922;28;20056;-77
2022/08/14 06:13:02;;;;;;;17.15;14.20;;;20.60;94.90;;;;;;5064892;28;20119;-76
2022/08/14 06:15:27;;;;;;;17.38;13.63;;;20.60;94.80;;;;;;5059248;28;20036;-76
2022/08/14 06:17:55;;;;;;;16.92;13.07;;;20.70;94.80;;;;;;5067834;28;20469;-77
2022/08/14 06:20:21;;;;;;;15.75;13.07;;;20.70;94.50;;;;;;5064430;28;20020;-76
2022/08/14 06:22:47;;;;;;;20.35;14.50;;;20.80;94.50;;;;;;5064261;28;20066;-76
2022/08/14 06:25:14;;;;;;;17.77;14.65;;;20.80;94.50;;;;;;5073068;28;20016;-77
2022/08/14 06:27:45;;;;;;;17.27;14.25;;;20.90;94.50;;;;;;5065011;28;20154;-77
2022/08/14 06:30:19;;;;;;;19.27;14.00;;;20.90;94.40;;;;;;5073083;28;20345;-76
2022/08/14 06:32:45;;;;;;;18.75;13.88;;;21.00;94.30;;;;;;5063778;28;20023;-77
2022/08/14 06:35:13;;;;;;;15.50;13.30;;;21.00;94.40;;;;;;5071780;28;20035;-76
2022/08/14 06:37:41;;;;;;;17.63;13.90;;;21.00;94.20;;;;;;5072744;28;20075;-76
2022/08/14 06:40:08;;;;;;;18.20;14.18;;;21.10;94.00;;;;;;5073445;28;20427;-76
2022/08/14 06:42:34;;;;;;;17.48;14.07;;;21.10;94.00;;;;;;5072329;28;20039;-76
2022/08/14 06:45:00;;;;;;;18.85;13.98;;;21.10;94.00;;;;;;5072035;28;20024;-75
2022/08/14 06:47:26;;;;;;;22.40;14.90;;;21.20;94.00;;;;;;5073824;28;20047;-77
2022/08/14 06:49:51;;;;;;;18.60;14.88;;;21.30;94.00;;;;;;5074323;28;20033;-77
2022/08/14 06:52:17;;;;;;;17.77;14.02;;;21.30;94.00;;;;;;5072778;28;20163;-77
2022/08/14 06:54:44;;;;;;;15.13;13.52;;;21.40;94.00;;;;;;5070362;28;20099;-78
2022/08/14 06:57:10;;;;;;;17.60;13.52;;;21.40;93.90;;;;;;5051865;28;20081;-78
2022/08/14 06:59:36;;;;;;;17.65;14.68;;;21.50;93.90;;;;;;5071608;28;20530;-77
2022/08/14 07:07:38;;;;;;;15.63;13.23;;;21.70;93.50;;;;;;5069912;28;20113;-77
2022/08/14 07:10:04;;;;;;;17.08;13.23;;;21.90;93.50;;;;;;5070700;28;20484;-77
2022/08/14 07:12:30;;;;;;;17.35;13.60;;;22.00;93.40;;;;;;5070768;28;20012;-77
2022/08/14 07:14:55;;;;;;;19.27;13.75;;;22.10;93.10;;;;;;5068463;28;20021;-77
2022/08/14 07:17:21;;;;;;;15.15;13.30;;;22.20;92.90;;;;;;5066729;28;20449;-77
2022/08/14 07:19:47;;;;;;;16.67;12.73;;;22.30;92.90;;;;;;5064442;28;20411;-77
2022/08/14 07:22:12;;;;;;;16.15;12.57;;;22.50;92.30;;;;;;5068137;28;20352;-78
2022/08/14 07:24:38;;;;;;;20.33;12.27;;;22.60;92.00;;;;;;5068441;28;20027;-77
2022/08/14 07:27:03;;;;;;;15.73;11.98;;;22.70;91.80;;;;;;5071972;28;20112;-78
2022/08/14 07:29:29;;;;;;;15.23;11.73;;;22.90;91.70;;;;;;5071083;28;20028;-77
2022/08/14 07:31:55;;;;;;;15.48;10.80;;;23.00;91.40;;;;;;5069932;28;20281;-78
2022/08/14 07:34:21;;;;;;;12.98;11.10;;;23.20;91.20;;;;;;5072473;28;20031;-77
2022/08/14 07:36:47;;;;;;;15.88;11.50;;;23.40;90.80;;;;;;5069022;28;20025;-78
2022/08/14 07:39:13;;;;;;;17.08;11.25;;;23.50;90.40;;;;;;5068906;28;20135;-77
2022/08/14 07:41:39;;;;;;;13.55;10.68;;;23.60;89.90;;;;;;5072680;28;20108;-78
2022/08/14 07:44:05;;;;;;;13.30;10.85;;;23.80;89.00;;;;;;5072360;28;20024;-77
2022/08/14 07:46:30;;;;;;;11.77;10.00;;;24.00;88.60;;;;;;5064611;28;20612;-78
2022/08/14 07:48:57;;;;;;;16.10;10.38;;;24.10;88.10;;;;;;5051397;28;20024;-78
2022/08/14 07:51:22;;;;;;;16.15;10.65;;;24.30;87.90;;;;;;5071798;28;20024;-78
2022/08/14 07:53:48;;;;;;;14.00;10.43;;;24.50;86.10;;;;;;5066448;28;20376;-78
2022/08/14 07:56:16;;;;;;;14.45;10.57;;;24.60;85.20;;;;;;5045359;28;20048;-78
2022/08/14 07:58:42;;;;;;;12.93;10.20;;;24.80;84.40;;;;;;5071392;28;20074;-78
2022/08/14 08:01:10;;;;;;;14.05;10.18;;;25.00;84.00;;;;;;5070306;28;20037;-78
2022/08/14 08:03:41;;;;;;;14.70;9.55;;;25.20;83.60;;;;;;5070906;28;20020;-79
2022/08/14 08:06:07;;;;;;;12.20;8.65;;;25.40;82.40;;;;;;5071039;28;20024;-78
2022/08/14 08:08:33;;;;;;;13.68;9.23;;;25.50;81.50;;;;;;5071434;28;20082;-78
2022/08/14 08:11:01;;;;;;;12.25;10.07;;;25.70;80.30;;;;;;5070688;28;20029;-78
2022/08/14 08:13:28;;;;;;;15.73;9.60;;;25.90;79.60;;;;;;5051150;28;20013;-78
2022/08/14 08:15:56;;;;;;;14.55;9.70;;;26.00;78.60;;;;;;5070559;28;20029;-78
2022/08/14 08:18:23;;;;;;;11.82;9.30;;;26.20;77.90;;;;;;5066300;28;20060;-78
2022/08/14 08:20:51;;;;;;;13.77;10.55;;;26.40;77.60;;;;;;5071241;28;20024;-78
2022/08/14 08:23:18;;;;;;;14.50;10.38;;;26.50;76.80;;;;;;5066968;28;20012;-78
2022/08/14 08:25:47;;;;;;;11.75;8.98;;;26.60;76.20;;;;;;5070707;28;20150;-78
2022/08/14 08:28:14;;;;;;;15.88;9.57;;;26.70;75.90;;;;;;5070511;28;20492;-78
2022/08/14 08:30:46;;;;;;;15.40;9.32;;;26.90;75.30;;;;;;5072181;28;20439;-81
2022/08/14 08:33:14;;;;;;;12.10;8.93;;;27.00;74.40;;;;;;5077861;28;20040;-80
2022/08/14 08:35:39;;;;;;;15.98;9.90;;;27.20;73.60;;;;;;5069816;28;20366;-78
2022/08/14 08:38:13;;;;;;;13.50;8.85;;;27.40;72.90;;;;;;5069826;28;20044;-77
2022/08/14 08:40:40;;;;;;;10.77;9.68;;;27.50;72.30;;;;;;5069154;28;20020;-78
2022/08/14 08:43:19;;;;;;;12.85;8.95;;;27.70;71.90;;;;;;5067685;28;20020;-77
2022/08/14 08:46:00;;;;;;;14.70;9.38;;;27.80;72.20;;;;;;5069159;28;20109;-80
2022/08/14 08:48:29;;;;;;;11.05;8.75;;;28.00;70.50;;;;;;5065833;28;20020;-77
2022/08/14 08:51:00;;;;;;;14.25;8.68;;;28.00;70.60;;;;;;5066104;28;20064;-77
2022/08/14 08:53:31;;;;;;;15.35;8.43;;;28.10;69.20;;;;;;5069896;28;20021;-77
2022/08/14 08:55:57;;;;;;;10.40;7.63;;;28.20;68.60;;;;;;5068081;28;20020;-77
2022/08/14 08:58:24;;;;;;;9.25;8.07;;;28.40;68.40;;;;;;5044661;28;20374;-76
2022/08/14 09:00:52;;;;;;;11.43;8.30;;;28.60;67.80;;;;;;5067737;28;20059;-75
2022/08/14 09:03:23;;;;;;;10.05;7.90;;;28.80;67.20;;;;;;5062064;28;20028;-75
2022/08/14 09:05:53;;;;;;;11.85;8.23;;;29.00;66.80;;;;;;5053769;28;20544;-75
2022/08/14 09:08:26;;;;;;;9.48;8.13;;;29.10;65.90;;;;;;5070082;28;20127;-76
2022/08/14 09:10:54;;;;;;;11.23;7.95;;;29.30;65.30;;;;;;5055007;28;20115;-76
2022/08/14 09:13:23;;;;;;;9.65;8.07;;;29.40;64.70;;;;;;5069950;28;20062;-75
2022/08/14 09:15:48;;;;;;;11.57;7.80;;;29.50;64.40;;;;;;5067704;28;20028;-75
2022/08/14 09:18:16;;;;;;;14.77;9.30;;;29.60;63.70;;;;;;5056735;28;20025;-75
2022/08/14 09:20:46;;;;;;;9.35;7.47;;;29.80;63.00;;;;;;5070503;28;20074;-75
2022/08/14 09:23:13;;;;;;;8.48;7.10;;;29.90;62.30;;;;;;5070715;28;20028;-75
2022/08/14 09:25:41;;;;;;;8.02;6.60;;;29.90;62.00;;;;;;5070173;28;20036;-75
2022/08/14 09:28:08;;;;;;;10.25;6.50;;;30.00;60.80;;;;;;5070487;28;20027;-76
2022/08/14 09:30:37;;;;;;;8.23;6.70;;;30.20;60.30;;;;;;5070669;28;20036;-76
2022/08/14 09:33:10;;;;;;;6.75;6.05;;;30.30;59.80;;;;;;5062374;28;20090;-76
2022/08/14 09:35:47;;;;;;;10.88;6.63;;;30.40;60.00;;;;;;5054855;28;20492;-76
2022/08/14 09:38:32;;;;;;;9.68;6.32;;;30.70;59.20;;;;;;5063089;28;20048;-76
2022/08/14 09:41:12;;;;;;;10.70;6.00;;;30.80;58.00;;;;;;5069867;28;20059;-75
2022/08/14 09:43:53;;;;;;;6.93;6.03;;;30.90;57.80;;;;;;5056696;28;20099;-75
2022/08/14 09:46:20;;;;;;;11.85;7.13;;;31.00;56.90;;;;;;5058956;28;20028;-76
2022/08/14 09:48:56;;;;;;;7.65;6.03;;;31.10;57.00;;;;;;5071247;28;20021;-76
2022/08/14 09:51:26;;;;;;;11.05;6.35;;;31.20;57.00;;;;;;5062096;28;20086;-76
2022/08/14 09:54:11;;;;;;;7.93;6.70;;;31.30;56.90;;;;;;5042387;28;20028;-75
2022/08/14 09:56:47;;;;;;;;;;;31.50;56.80;;;;;;5065720;28;20033;-76
2022/08/14 09:59:16;;;;;;;8.82;6.50;;;31.60;56.30;;;;;;5055952;28;19915;-76
2022/08/14 10:01:43;;;;;;;8.23;6.03;;;31.60;56.10;;;;;;5065196;28;20024;-76
2022/08/14 10:04:27;;;;;;;7.80;5.93;;;31.70;55.70;;;;;;5068425;28;20040;-76
2022/08/14 10:06:53;;;;;;;8.95;6.18;;;31.80;55.20;;;;;;5066023;28;20024;-75
2022/08/14 10:09:19;;;;;;;8.85;5.88;;;31.90;55.20;;;;;;5070139;28;20090;-76
2022/08/14 10:11:58;;;;;;;8.13;6.25;;;32.00;54.80;;;;;;5056135;28;20059;-76
2022/08/14 10:14:31;;;;;;;8.40;5.95;;;32.10;54.20;;;;;;5070298;28;20529;-76
2022/08/14 10:16:57;;;;;;;6.95;5.75;;;32.10;54.00;;;;;;5062638;28;20099;-76
2022/08/14 10:19:27;;;;;;;11.13;6.00;;;32.20;54.30;;;;;;5061963;28;20468;-77
2022/08/14 10:22:09;;;;;;;7.28;5.97;;;32.30;53.30;;;;;;5066729;28;20025;-76
2022/08/14 10:24:45;;;;;;;8.63;5.88;;;32.30;53.20;;;;;;5070133;28;20020;-76
2022/08/14 10:27:22;;;;;;;10.07;5.28;;;32.50;53.00;;;;;;5055980;28;20032;-77
2022/08/14 10:29:59;;;;;;;7.65;5.97;;;32.50;53.20;;;;;;5070435;28;20123;-77
2022/08/14 10:32:26;;;;;;;9.48;6.55;;;32.70;53.20;;;;;;5068383;28;20453;-76
2022/08/14 10:35:06;;;;;;;9.80;5.95;;;32.80;52.60;;;;;;5057759;28;20013;-76
2022/08/14 10:37:48;;;;;;;6.75;5.40;;;32.90;52.20;;;;;;5055535;28;20049;-77
2022/08/14 10:40:26;;;;;;;12.13;6.28;;;32.90;52.00;;;;;;5051721;28;20090;-77
2022/08/14 10:42:52;;;;;;;10.18;6.03;;;32.90;51.90;;;;;;5071242;28;20036;-75
2022/08/14 10:45:20;;;;;;;6.75;5.50;;;33.00;51.60;;;;;;5067434;28;20380;-76
2022/08/14 10:47:46;;;;;;;6.22;5.22;;;33.00;51.00;;;;;;5070567;28;20017;-75
2022/08/14 10:50:15;;;;;;;7.35;5.57;;;33.00;50.50;;;;;;5058028;28;20037;-76
2022/08/14 10:52:41;;;;;;;6.07;4.90;;;33.10;50.10;;;;;;5056607;28;20017;-76
2022/08/14 10:55:12;;;;;;;6.20;4.78;;;33.20;49.90;;;;;;5063173;28;20017;-76
2022/08/14 10:57:49;;;;;;;7.00;4.75;;;33.30;49.70;;;;;;5067322;28;20027;-75
2022/08/14 11:00:22;;;;;;;7.90;4.80;;;33.50;48.90;;;;;;5060653;28;20527;-76
2022/08/14 11:03:17;;;;;;;5.68;4.70;;;33.40;48.40;;;;;;5066481;28;20029;-76
2022/08/14 11:05:49;;;;;;;7.20;5.10;;;33.50;48.40;;;;;;5032586;28;20044;-76
2022/08/14 11:08:18;;;;;;;5.93;4.72;;;33.60;47.90;;;;;;5069642;28;20512;-76
2022/08/14 11:10:54;;;;;;;7.18;4.53;;;33.60;47.70;;;;;;5057065;28;20055;-77
2022/08/14 11:13:24;;;;;;;6.22;4.50;;;33.60;47.50;;;;;;5072283;28;20025;-75
2022/08/14 11:15:51;;;;;;;6.45;4.90;;;33.60;47.60;;;;;;5058118;28;20035;-77
2022/08/14 11:18:18;;;;;;;9.48;4.70;;;33.70;47.20;;;;;;5062113;28;20035;-76
2022/08/14 11:20:49;;;;;;;6.80;4.63;;;33.80;46.50;;;;;;5073405;28;20032;-76
2022/08/14 11:23:17;;;;;;;5.28;4.78;;;33.80;46.50;;;;;;5075395;28;20029;-76
2022/08/14 11:25:48;;;;;;;5.72;4.38;;;33.90;46.70;;;;;;5045884;28;20039;-76
2022/08/14 11:28:15;;;;;;;5.30;4.80;;;34.00;46.20;;;;;;5057663;28;20021;-79
2022/08/14 11:30:45;;;;;;;8.43;5.25;;;34.00;46.20;;;;;;5062072;28;20077;-76
2022/08/14 11:33:11;;;;;;;5.65;5.03;;;34.00;46.00;;;;;;5066070;28;20018;-76
2022/08/14 11:35:37;;;;;;;7.57;4.75;;;34.00;46.20;;;;;;5073645;28;20021;-75
2022/08/14 11:38:06;;;;;;;7.80;4.95;;;34.10;46.50;;;;;;5057232;28;20238;-76
2022/08/14 11:40:34;;;;;;;5.80;4.70;;;34.10;46.40;;;;;;5067013;28;20029;-76
2022/08/14 11:43:02;;;;;;;9.07;5.13;;;34.20;46.20;;;;;;5055705;28;20028;-76
2022/08/14 11:45:33;;;;;;;4.90;4.40;;;34.30;45.50;;;;;;5070893;28;20032;-76
2022/08/14 11:48:18;;;;;;;5.72;4.80;;;34.30;45.40;;;;;;5067019;28;20127;-76
2022/08/14 11:50:44;;;;;;;;;;;34.40;45.20;;;;;;5055376;28;20032;-77
2022/08/14 11:53:29;;;;;;;6.38;5.07;;;34.50;45.00;;;;;;5069209;28;19904;-77
2022/08/14 11:55:57;;;;;;;5.60;4.47;;;34.50;45.10;;;;;;5068446;28;20025;-77
2022/08/14 11:58:32;;;;;;;8.30;4.78;;;34.60;45.40;;;;;;5063335;28;20024;-76
2022/08/14 12:01:03;;;;;;;5.63;4.30;;;34.70;44.80;;;;;;5071654;28;20557;-76
2022/08/14 12:03:34;;;;;;;10.90;4.55;;;34.70;44.60;;;;;;5070474;28;20384;-76
2022/08/14 12:06:07;;;;;;;6.57;4.80;;;34.70;44.50;;;;;;5072343;28;20349;-76
2022/08/14 12:08:35;;;;;;;5.78;3.80;;;34.80;44.70;;;;;;5055286;28;20048;-76
2022/08/14 12:11:02;;;;;;;6.03;3.67;;;34.90;43.80;;;;;;5069605;28;20059;-76
2022/08/14 12:13:32;;;;;;;5.55;3.92;;;34.90;42.50;;;;;;5074524;28;20021;-76
2022/08/14 12:16:07;;;;;;;3.85;3.55;;;34.90;41.80;;;;;;5074269;28;20051;-77
2022/08/14 12:18:35;;;;;;;4.28;3.65;;;35.00;41.50;;;;;;5070815;28;20480;-76
2022/08/14 12:21:11;;;;;;;4.22;3.42;;;35.00;41.40;;;;;;5064473;28;20047;-77
2022/08/14 12:23:36;;;;;;;6.38;3.67;;;35.10;40.70;;;;;;5056250;28;20112;-78
2022/08/14 12:26:04;;;;;;;7.40;3.30;;;35.10;40.00;;;;;;5056250;28;20052;-75
2022/08/14 12:28:30;;;;;;;3.65;3.20;;;35.10;39.70;;;;;;5044219;28;20016;-75
2022/08/14 12:30:57;;;;;;;3.60;3.30;;;35.10;39.50;;;;;;5054315;28;20028;-77
2022/08/14 12:33:31;;;;;;;5.47;3.40;;;35.10;39.60;;;;;;5067863;28;20029;-77
2022/08/14 12:36:00;;;;;;;4.45;3.50;;;35.00;39.60;;;;;;5047343;28;20024;-76
2022/08/14 12:38:40;;;;;;;4.35;3.47;;;35.10;40.10;;;;;;5055577;28;20044;-78
2022/08/14 12:41:19;;;;;;;3.90;3.40;;;35.10;39.00;;;;;;5057144;28;20489;-76
2022/08/14 12:44:05;;;;;;;6.70;3.42;;;35.00;39.00;;;;;;5067683;28;20040;-76
2022/08/14 12:46:40;;;;;;;3.55;3.22;;;35.00;38.90;;;;;;5043434;28;20087;-76
2022/08/14 12:49:08;;;;;;;;;;;35.00;39.00;;;;;;5067734;28;20468;-76
2022/08/14 12:51:34;;;;;;;6.20;3.60;;;34.90;38.60;;;;;;5073628;28;20339;-76
2022/08/14 12:54:19;;;;;;;3.97;3.58;;;34.90;39.40;;;;;;5073850;28;20028;-76
2022/08/14 12:56:46;;;;;;;3.97;2.97;;;35.00;39.50;;;;;;5044837;28;20021;-76
2022/08/14 12:59:13;;;;;;;4.10;3.17;;;35.10;39.40;;;;;;5065966;28;20028;-76
2022/08/14 13:01:41;;;;;;;4.15;3.10;;;35.20;39.10;;;;;;5064378;28;20029;-76
2022/08/14 13:04:15;;;;;;;6.38;3.38;;;35.20;38.00;;;;;;5057796;28;20024;-77
2022/08/14 13:06:46;;;;;;;4.05;3.65;;;35.20;38.00;;;;;;5060977;28;20469;-76